sensor_id;sensor_type;location;lat;lon;timestamp;pressure;altitude;pressure_sealevel;temperature;humidity
22743;BME280;11538;48.884;8.696;2023-03-03T00:00:57;98996.38;;;1.29;100.00
22743;BME280;11538;48.884;8.696;2023-03-03T00:03:25;98997.75;;;1.31;100.00
22743;BME280;11538;48.884;8.696;2023-03-03T00:05:53;98995.56;;;1.28;100.00
22743;BME280;11538;48.884;8.696;2023-03-03T00:08:21;98996.38;;;1.17;100.00
22743;BME280;11538;48.884;8.696;2023-03-03T00:10:48;98997.66;;;1.14;100.00
22743;BME280;11538;48.884;8.696;2023-03-03T00:13:20;98998.56;;;1.20;100.00
22743;BME280;11538;48.884;8.696;2023-03-03T00:15:47;99001.03;;;1.22;100.00
22743;BME280;11538;48.884;8.696;2023-03-03T00:18:32;99002.09;;;1.33;100.00
22743;BME280;11538;48.884;8.696;2023-03-03T00:21:03;98997.75;;;1.43;100.00
22743;BME280;11538;48.884;8.696;2023-03-03T00:23:40;99001.63;;;1.36;100.00
22743;BME280;11538;48.884;8.696;2023-03-03T00:26:33;99001.47;;;1.30;100.00
22743;BME280;11538;48.884;8.696;2023-03-03T00:29:33;99001.16;;;1.27;100.00
22743;BME280;11538;48.884;8.696;2023-03-03T00:32:26;98997.09;;;1.12;100.00
22743;BME280;11538;48.884;8.696;2023-03-03T00:34:55;99001.13;;;1.15;100.00
22743;BME280;11538;48.884;8.696;2023-03-03T00:37:33;98997.78;;;1.20;100.00
22743;BME280;11538;48.884;8.696;2023-03-03T00:40:30;99003.34;;;1.18;100.00
22743;BME280;11538;48.884;8.696;2023-03-03T00:43:00;98997.66;;;1.14;100.00
22743;BME280;11538;48.884;8.696;2023-03-03T00:50:59;99002.19;;;1.38;100.00
22743;BME280;11538;48.884;8.696;2023-03-03T00:53:29;99001.38;;;1.49;100.00
22743;BME280;11538;48.884;8.696;2023-03-03T00:55:56;98996.59;;;1.39;100.00
22743;BME280;11538;48.884;8.696;2023-03-03T00:58:24;98997.06;;;1.24;100.00
22743;BME280;11538;48.884;8.696;2023-03-03T01:00:53;99000.91;;;1.28;100.00
22743;BME280;11538;48.884;8.696;2023-03-03T01:03:24;98996.00;;;1.25;100.00
22743;BME280;11538;48.884;8.696;2023-03-03T01:05:52;98993.94;;;1.15;100.00
22743;BME280;11538;48.884;8.696;2023-03-03T01:08:21;98989.28;;;1.23;100.00
22743;BME280;11538;48.884;8.696;2023-03-03T01:10:55;98989.88;;;1.25;100.00
22743;BME280;11538;48.884;8.696;2023-03-03T01:13:27;98992.91;;;1.16;100.00
22743;BME280;11538;48.884;8.696;2023-03-03T01:15:58;98992.53;;;1.13;100.00
22743;BME280;11538;48.884;8.696;2023-03-03T01:18:26;98985.47;;;1.19;100.00
22743;BME280;11538;48.884;8.696;2023-03-03T01:20:53;98983.72;;;1.12;100.00
22743;BME280;11538;48.884;8.696;2023-03-03T01:23:20;98984.97;;;1.10;100.00
22743;BME280;11538;48.884;8.696;2023-03-03T01:25:48;98987.78;;;1.15;100.00
22743;BME280;11538;48.884;8.696;2023-03-03T01:28:14;98987.19;;;1.25;100.00
22743;BME280;11538;48.884;8.696;2023-03-03T01:30:41;98994.28;;;1.19;100.00
22743;BME280;11538;48.884;8.696;2023-03-03T01:33:08;98989.53;;;1.09;100.00
22743;BME280;11538;48.884;8.696;2023-03-03T01:35:36;98991.72;;;1.00;100.00
22743;BME280;11538;48.884;8.696;2023-03-03T01:38:03;98993.59;;;1.00;100.00
22743;BME280;11538;48.884;8.696;2023-03-03T01:40:30;98993.34;;;1.01;100.00
22743;BME280;11538;48.884;8.696;2023-03-03T01:43:00;98996.03;;;1.01;100.00
22743;BME280;11538;48.884;8.696;2023-03-03T01:45:31;98999.84;;;1.06;100.00
22743;BME280;11538;48.884;8.696;2023-03-03T01:48:19;98993.00;;;1.10;100.00
22743;BME280;11538;48.884;8.696;2023-03-03T01:50:55;98989.63;;;1.02;100.00
22743;BME280;11538;48.884;8.696;2023-03-03T01:53:41;98988.94;;;0.95;100.00
22743;BME280;11538;48.884;8.696;2023-03-03T01:56:09;98981.16;;;0.94;100.00
22743;BME280;11538;48.884;8.696;2023-03-03T01:58:51;98981.63;;;0.91;100.00
22743;BME280;11538;48.884;8.696;2023-03-03T02:01:24;98977.34;;;0.90;100.00
22743;BME280;11538;48.884;8.696;2023-03-03T02:03:52;98973.38;;;0.92;100.00
22743;BME280;11538;48.884;8.696;2023-03-03T02:06:25;98975.47;;;0.90;100.00
22743;BME280;11538;48.884;8.696;2023-03-03T02:09:15;98973.38;;;0.92;100.00
22743;BME280;11538;48.884;8.696;2023-03-03T02:11:48;98965.69;;;0.84;100.00
22743;BME280;11538;48.884;8.696;2023-03-03T02:14:16;98954.09;;;0.90;100.00
22743;BME280;11538;48.884;8.696;2023-03-03T02:16:43;98957.72;;;0.96;100.00
22743;BME280;11538;48.884;8.696;2023-03-03T02:22:50;98966.03;;;0.76;100.00
22743;BME280;11538;48.884;8.696;2023-03-03T02:28:32;98970.91;;;0.79;100.00
22743;BME280;11538;48.884;8.696;2023-03-03T02:31:01;98968.84;;;0.81;100.00
22743;BME280;11538;48.884;8.696;2023-03-03T02:33:29;98962.09;;;0.90;100.00
22743;BME280;11538;48.884;8.696;2023-03-03T02:35:55;98966.88;;;0.88;100.00
22743;BME280;11538;48.884;8.696;2023-03-03T02:38:43;98974.41;;;0.79;100.00
22743;BME280;11538;48.884;8.696;2023-03-03T02:41:49;98967.53;;;0.71;100.00
22743;BME280;11538;48.884;8.696;2023-03-03T02:44:27;98973.84;;;0.77;100.00
22743;BME280;11538;48.884;8.696;2023-03-03T02:46:56;98981.13;;;0.82;100.00
22743;BME280;11538;48.884;8.696;2023-03-03T02:49:30;98990.19;;;0.81;100.00
22743;BME280;11538;48.884;8.696;2023-03-03T02:51:59;98983.47;;;0.78;100.00
22743;BME280;11538;48.884;8.696;2023-03-03T02:54:28;98986.34;;;0.77;100.00
22743;BME280;11538;48.884;8.696;2023-03-03T02:56:59;98990.06;;;0.76;100.00
22743;BME280;11538;48.884;8.696;2023-03-03T02:59:27;98986.16;;;0.78;100.00
22743;BME280;11538;48.884;8.696;2023-03-03T03:01:54;98985.56;;;0.76;100.00
22743;BME280;11538;48.884;8.696;2023-03-03T03:04:24;98981.69;;;0.60;100.00
22743;BME280;11538;48.884;8.696;2023-03-03T03:06:53;98984.34;;;0.60;100.00
22743;BME280;11538;48.884;8.696;2023-03-03T03:09:22;98986.06;;;0.54;100.00
22743;BME280;11538;48.884;8.696;2023-03-03T03:11:50;98982.16;;;0.57;100.00
22743;BME280;11538;48.884;8.696;2023-03-03T03:14:17;98989.69;;;0.60;100.00
22743;BME280;11538;48.884;8.696;2023-03-03T03:16:45;98988.88;;;0.60;100.00
22743;BME280;11538;48.884;8.696;2023-03-03T03:19:12;98992.38;;;0.60;100.00
22743;BME280;11538;48.884;8.696;2023-03-03T03:21:39;98994.00;;;0.61;100.00
22743;BME280;11538;48.884;8.696;2023-03-03T03:24:06;98987.03;;;0.60;100.00
22743;BME280;11538;48.884;8.696;2023-03-03T03:26:33;98986.19;;;0.60;100.00
22743;BME280;11538;48.884;8.696;2023-03-03T03:29:00;98995.25;;;0.58;100.00
22743;BME280;11538;48.884;8.696;2023-03-03T03:31:27;98993.16;;;0.49;100.00
22743;BME280;11538;48.884;8.696;2023-03-03T03:33:54;98990.94;;;0.46;100.00
22743;BME280;11538;48.884;8.696;2023-03-03T03:36:20;98990.56;;;0.42;100.00
22743;BME280;11538;48.884;8.696;2023-03-03T03:38:48;98999.53;;;0.48;100.00
22743;BME280;11538;48.884;8.696;2023-03-03T03:41:15;98995.00;;;0.48;100.00
22743;BME280;11538;48.884;8.696;2023-03-03T03:43:42;98995.25;;;0.47;100.00
22743;BME280;11538;48.884;8.696;2023-03-03T03:46:08;98998.84;;;0.52;100.00
22743;BME280;11538;48.884;8.696;2023-03-03T03:48:36;98996.75;;;0.54;100.00
22743;BME280;11538;48.884;8.696;2023-03-03T03:51:03;99001.50;;;0.52;100.00
22743;BME280;11538;48.884;8.696;2023-03-03T03:53:30;99000.25;;;0.55;100.00
22743;BME280;11538;48.884;8.696;2023-03-03T03:55:57;98994.91;;;0.55;100.00
22743;BME280;11538;48.884;8.696;2023-03-03T03:58:24;98996.03;;;0.35;100.00
22743;BME280;11538;48.884;8.696;2023-03-03T04:00:51;98994.84;;;0.31;100.00
22743;BME280;11538;48.884;8.696;2023-03-03T04:03:18;98985.22;;;0.30;100.00
22743;BME280;11538;48.884;8.696;2023-03-03T04:05:46;98986.38;;;0.34;100.00
22743;BME280;11538;48.884;8.696;2023-03-03T04:08:12;98986.97;;;0.36;100.00
22743;BME280;11538;48.884;8.696;2023-03-03T04:10:39;98989.78;;;0.41;100.00
22743;BME280;11538;48.884;8.696;2023-03-03T04:13:06;98988.22;;;0.34;100.00
22743;BME280;11538;48.884;8.696;2023-03-03T04:15:33;98988.59;;;0.37;100.00
22743;BME280;11538;48.884;8.696;2023-03-03T04:18:00;98997.66;;;0.36;100.00
22743;BME280;11538;48.884;8.696;2023-03-03T04:20:27;98994.75;;;0.38;100.00
22743;BME280;11538;48.884;8.696;2023-03-03T04:22:54;99002.41;;;0.46;100.00
22743;BME280;11538;48.884;8.696;2023-03-03T04:25:23;99002.09;;;0.54;100.00
22743;BME280;11538;48.884;8.696;2023-03-03T04:27:49;99006.75;;;0.59;100.00
22743;BME280;11538;48.884;8.696;2023-03-03T04:30:18;99006.88;;;0.64;100.00
22743;BME280;11538;48.884;8.696;2023-03-03T04:32:45;99006.31;;;0.62;100.00
22743;BME280;11538;48.884;8.696;2023-03-03T04:35:13;98995.03;;;0.60;100.00
22743;BME280;11538;48.884;8.696;2023-03-03T04:37:40;98997.13;;;0.58;100.00
22743;BME280;11538;48.884;8.696;2023-03-03T04:40:08;98995.03;;;0.60;100.00
22743;BME280;11538;48.884;8.696;2023-03-03T04:42:37;99008.38;;;0.60;100.00
22743;BME280;11538;48.884;8.696;2023-03-03T04:45:05;99006.66;;;0.66;100.00
22743;BME280;11538;48.884;8.696;2023-03-03T04:47:32;99008.44;;;0.72;100.00
22743;BME280;11538;48.884;8.696;2023-03-03T04:49:59;99013.66;;;0.79;100.00
22743;BME280;11538;48.884;8.696;2023-03-03T04:52:27;99017.94;;;0.80;100.00
22743;BME280;11538;48.884;8.696;2023-03-03T04:54:54;99015.84;;;0.82;100.00
22743;BME280;11538;48.884;8.696;2023-03-03T04:57:20;99016.56;;;0.77;100.00
22743;BME280;11538;48.884;8.696;2023-03-03T04:59:47;99019.94;;;0.84;100.00
22743;BME280;11538;48.884;8.696;2023-03-03T05:02:14;99018.66;;;0.87;100.00
22743;BME280;11538;48.884;8.696;2023-03-03T05:04:41;99024.69;;;0.94;100.00
22743;BME280;11538;48.884;8.696;2023-03-03T05:07:08;99011.81;;;0.91;100.00
22743;BME280;11538;48.884;8.696;2023-03-03T05:09:36;99022.50;;;0.79;100.00
22743;BME280;11538;48.884;8.696;2023-03-03T05:12:03;99020.41;;;0.81;100.00
22743;BME280;11538;48.884;8.696;2023-03-03T05:14:30;99015.84;;;0.82;100.00
22743;BME280;11538;48.884;8.696;2023-03-03T05:16:57;99017.59;;;0.76;100.00
22743;BME280;11538;48.884;8.696;2023-03-03T05:19:24;99016.09;;;0.80;100.00
22743;BME280;11538;48.884;8.696;2023-03-03T05:21:52;99012.97;;;0.83;100.00
22743;BME280;11538;48.884;8.696;2023-03-03T05:24:18;99013.31;;;0.87;100.00
22743;BME280;11538;48.884;8.696;2023-03-03T05:26:45;99013.31;;;0.87;100.00
22743;BME280;11538;48.884;8.696;2023-03-03T05:29:12;99019.22;;;0.89;100.00
22743;BME280;11538;48.884;8.696;2023-03-03T05:31:39;99010.63;;;0.87;100.00
22743;BME280;11538;48.884;8.696;2023-03-03T05:34:06;99018.31;;;0.95;100.00
22743;BME280;11538;48.884;8.696;2023-03-03T05:36:33;99022.28;;;1.05;100.00
22743;BME280;11538;48.884;8.696;2023-03-03T05:39:00;99026.00;;;1.04;100.00
22743;BME280;11538;48.884;8.696;2023-03-03T05:41:30;99030.06;;;1.06;100.00
22743;BME280;11538;48.884;8.696;2023-03-03T05:43:59;99032.38;;;1.02;100.00
22743;BME280;11538;48.884;8.696;2023-03-03T05:46:26;99031.91;;;1.06;100.00
22743;BME280;11538;48.884;8.696;2023-03-03T05:48:53;99036.13;;;1.13;100.00
22743;BME280;11538;48.884;8.696;2023-03-03T05:51:20;99043.41;;;1.18;100.00
22743;BME280;11538;48.884;8.696;2023-03-03T05:53:47;99035.75;;;1.22;100.00
22743;BME280;11538;48.884;8.696;2023-03-03T05:56:13;99046.13;;;1.30;100.00
22743;BME280;11538;48.884;8.696;2023-03-03T05:58:41;99046.69;;;1.32;100.00
22743;BME280;11538;48.884;8.696;2023-03-03T06:01:08;99051.22;;;1.31;100.00
22743;BME280;11538;48.884;8.696;2023-03-03T06:03:34;99045.88;;;1.31;100.00
22743;BME280;11538;48.884;8.696;2023-03-03T06:06:02;99050.50;;;1.24;100.00
22743;BME280;11538;48.884;8.696;2023-03-03T06:08:29;99058.41;;;1.19;100.00
22743;BME280;11538;48.884;8.696;2023-03-03T06:10:57;99054.56;;;1.15;100.00
22743;BME280;11538;48.884;8.696;2023-03-03T06:13:25;99060.16;;;1.13;100.00
22743;BME280;11538;48.884;8.696;2023-03-03T06:15:52;99063.28;;;1.22;100.00
22743;BME280;11538;48.884;8.696;2023-03-03T06:18:19;99063.78;;;1.31;100.00
22743;BME280;11538;48.884;8.696;2023-03-03T06:20:53;99067.03;;;1.33;100.00
22743;BME280;11538;48.884;8.696;2023-03-03T06:23:21;99069.22;;;1.36;100.00
22743;BME280;11538;48.884;8.696;2023-03-03T06:25:48;99068.31;;;1.42;100.00
22743;BME280;11538;48.884;8.696;2023-03-03T06:28:15;99070.19;;;1.42;100.00
22743;BME280;11538;48.884;8.696;2023-03-03T06:30:42;99064.59;;;1.43;100.00
22743;BME280;11538;48.884;8.696;2023-03-03T06:33:10;99072.50;;;1.50;100.00
22743;BME280;11538;48.884;8.696;2023-03-03T06:35:37;99081.00;;;1.47;100.00
22743;BME280;11538;48.884;8.696;2023-03-03T06:38:04;99081.34;;;1.39;100.00
22743;BME280;11538;48.884;8.696;2023-03-03T06:40:31;99081.22;;;1.34;100.00
22743;BME280;11538;48.884;8.696;2023-03-03T06:42:57;99080.28;;;1.40;100.00
22743;BME280;11538;48.884;8.696;2023-03-03T06:45:24;99084.34;;;1.42;100.00
22743;BME280;11538;48.884;8.696;2023-03-03T06:47:51;99084.59;;;1.41;100.00
22743;BME280;11538;48.884;8.696;2023-03-03T06:50:19;99090.53;;;1.43;100.00
22743;BME280;11538;48.884;8.696;2023-03-03T06:52:46;99091.78;;;1.40;100.00
22743;BME280;11538;48.884;8.696;2023-03-03T06:55:21;99090.84;;;1.46;100.00
22743;BME280;11538;48.884;8.696;2023-03-03T06:57:48;99083.31;;;1.55;100.00
22743;BME280;11538;48.884;8.696;2023-03-03T07:02:43;99097.94;;;1.53;100.00
22743;BME280;11538;48.884;8.696;2023-03-03T07:05:16;99094.00;;;1.55;100.00
22743;BME280;11538;48.884;8.696;2023-03-03T07:07:44;99099.94;;;1.57;100.00
22743;BME280;11538;48.884;8.696;2023-03-03T07:10:25;99105.63;;;1.61;100.00
22743;BME280;11538;48.884;8.696;2023-03-03T07:12:56;99105.03;;;1.59;100.00
22743;BME280;11538;48.884;8.696;2023-03-03T07:15:33;99109.81;;;1.69;100.00
22743;BME280;11538;48.884;8.696;2023-03-03T07:18:00;99108.53;;;1.71;100.00
22743;BME280;11538;48.884;8.696;2023-03-03T07:20:40;99107.00;;;1.75;100.00
22743;BME280;11538;48.884;8.696;2023-03-03T07:25:52;99110.72;;;1.86;100.00
22743;BME280;11538;48.884;8.696;2023-03-03T07:28:28;99101.78;;;1.81;100.00
22743;BME280;11538;48.884;8.696;2023-03-03T07:30:57;99114.34;;;1.80;100.00
22743;BME280;11538;48.884;8.696;2023-03-03T07:33:44;99104.22;;;1.82;100.00
22743;BME280;11538;48.884;8.696;2023-03-03T07:36:42;99098.72;;;1.89;100.00
22743;BME280;11538;48.884;8.696;2023-03-03T07:42:19;99108.16;;;1.92;100.00
22743;BME280;11538;48.884;8.696;2023-03-03T07:44:51;99113.53;;;2.03;100.00
22743;BME280;11538;48.884;8.696;2023-03-03T07:47:26;99114.91;;;2.06;100.00
22743;BME280;11538;48.884;8.696;2023-03-03T07:49:57;99123.59;;;2.13;100.00
22743;BME280;11538;48.884;8.696;2023-03-03T07:55:35;99122.28;;;2.28;100.00
22743;BME280;11538;48.884;8.696;2023-03-03T08:01:39;99141.13;;;2.33;100.00
22743;BME280;11538;48.884;8.696;2023-03-03T08:07:01;99142.97;;;2.44;100.00
22743;BME280;11538;48.884;8.696;2023-03-03T08:09:37;99150.06;;;2.51;100.00
22743;BME280;11538;48.884;8.696;2023-03-03T08:12:30;99147.56;;;2.61;100.00
22743;BME280;11538;48.884;8.696;2023-03-03T08:15:19;99147.22;;;2.69;100.00
22743;BME280;11538;48.884;8.696;2023-03-03T08:17:51;99144.63;;;2.74;100.00
22743;BME280;11538;48.884;8.696;2023-03-03T08:20:37;99142.06;;;2.80;100.00
22743;BME280;11538;48.884;8.696;2023-03-03T08:23:04;99139.03;;;2.76;100.00
22743;BME280;11538;48.884;8.696;2023-03-03T08:25:31;99136.59;;;2.74;100.00
22743;BME280;11538;48.884;8.696;2023-03-03T08:27:58;99131.25;;;2.74;100.00
22743;BME280;11538;48.884;8.696;2023-03-03T08:30:27;99138.06;;;2.82;100.00
22743;BME280;11538;48.884;8.696;2023-03-03T08:32:54;99135.34;;;2.94;100.00
22743;BME280;11538;48.884;8.696;2023-03-03T08:35:21;99134.38;;;3.00;100.00
22743;BME280;11538;48.884;8.696;2023-03-03T08:37:48;99130.34;;;3.15;100.00
22743;BME280;11538;48.884;8.696;2023-03-03T08:40:15;99125.66;;;3.39;100.00
22743;BME280;11538;48.884;8.696;2023-03-03T08:42:41;99137.00;;;3.63;100.00
22743;BME280;11538;48.884;8.696;2023-03-03T08:45:08;99127.34;;;3.62;99.01
22743;BME280;11538;48.884;8.696;2023-03-03T08:47:36;99125.28;;;3.87;97.46
22743;BME280;11538;48.884;8.696;2023-03-03T08:50:05;99128.50;;;4.06;94.74
22743;BME280;11538;48.884;8.696;2023-03-03T08:52:32;99132.16;;;4.39;94.35
22743;BME280;11538;48.884;8.696;2023-03-03T08:54:59;99126.09;;;4.76;91.38
22743;BME280;11538;48.884;8.696;2023-03-03T08:57:26;99134.75;;;5.06;88.27
22743;BME280;11538;48.884;8.696;2023-03-03T08:59:53;99134.09;;;5.26;86.48
22743;BME280;11538;48.884;8.696;2023-03-03T09:02:20;99137.75;;;5.42;84.42
22743;BME280;11538;48.884;8.696;2023-03-03T09:04:47;99149.47;;;5.63;82.64
22743;BME280;11538;48.884;8.696;2023-03-03T09:07:14;99150.25;;;5.96;77.83
22743;BME280;11538;48.884;8.696;2023-03-03T09:09:41;99154.69;;;6.18;74.39
22743;BME280;11538;48.884;8.696;2023-03-03T09:12:15;99155.34;;;6.41;71.29
22743;BME280;11538;48.884;8.696;2023-03-03T09:14:43;99162.91;;;6.49;70.96
22743;BME280;11538;48.884;8.696;2023-03-03T09:19:57;99169.94;;;6.50;69.71
22743;BME280;11538;48.884;8.696;2023-03-03T09:22:27;99166.28;;;6.77;71.21
22743;BME280;11538;48.884;8.696;2023-03-03T09:24:57;99167.13;;;6.98;68.44
22743;BME280;11538;48.884;8.696;2023-03-03T09:30:02;99177.16;;;7.29;66.87
22743;BME280;11538;48.884;8.696;2023-03-03T09:32:41;99171.00;;;7.49;67.11
22743;BME280;11538;48.884;8.696;2023-03-03T09:37:54;99176.09;;;7.76;62.97
22743;BME280;11538;48.884;8.696;2023-03-03T09:55:49;99169.84;;;8.12;58.71
22743;BME280;11538;48.884;8.696;2023-03-03T09:58:52;99170.06;;;8.31;61.22
22743;BME280;11538;48.884;8.696;2023-03-03T10:08:47;99170.94;;;8.87;59.12
22743;BME280;11538;48.884;8.696;2023-03-03T10:11:31;99173.25;;;9.10;60.65
22743;BME280;11538;48.884;8.696;2023-03-03T10:22:53;99175.38;;;9.58;62.79
22743;BME280;11538;48.884;8.696;2023-03-03T10:25:42;99180.09;;;9.42;56.66
22743;BME280;11538;48.884;8.696;2023-03-03T10:28:29;99177.25;;;9.57;57.38
22743;BME280;11538;48.884;8.696;2023-03-03T10:32:02;99174.75;;;9.66;55.65
22743;BME280;11538;48.884;8.696;2023-03-03T10:40:34;99177.81;;;10.18;54.77
22743;BME280;11538;48.884;8.696;2023-03-03T10:49:15;99173.16;;;10.19;51.39
22743;BME280;11538;48.884;8.696;2023-03-03T11:00:32;99174.19;;;11.15;50.56
22743;BME280;11538;48.884;8.696;2023-03-03T11:14:46;99171.53;;;10.72;52.87
22743;BME280;11538;48.884;8.696;2023-03-03T11:17:34;99173.38;;;10.52;53.47
22743;BME280;11538;48.884;8.696;2023-03-03T11:26:08;99179.53;;;11.01;49.63
22743;BME280;11538;48.884;8.696;2023-03-03T11:29:29;99187.97;;;11.00;50.91
22743;BME280;11538;48.884;8.696;2023-03-03T11:35:28;99187.28;;;10.70;54.55
22743;BME280;11538;48.884;8.696;2023-03-03T11:40:50;99176.59;;;10.54;56.33
22743;BME280;11538;48.884;8.696;2023-03-03T11:43:44;99181.56;;;10.47;53.71
22743;BME280;11538;48.884;8.696;2023-03-03T11:46:29;99175.16;;;10.62;52.83
22743;BME280;11538;48.884;8.696;2023-03-03T11:49:08;99166.47;;;10.84;51.61
22743;BME280;11538;48.884;8.696;2023-03-03T11:52:12;99169.19;;;10.84;52.19
22743;BME280;11538;48.884;8.696;2023-03-03T11:54:56;99164.28;;;12.24;49.71
22743;BME280;11538;48.884;8.696;2023-03-03T12:00:36;99157.88;;;13.58;45.16
22743;BME280;11538;48.884;8.696;2023-03-03T12:12:47;99146.72;;;14.40;42.03
22743;BME280;11538;48.884;8.696;2023-03-03T12:16:02;99139.81;;;14.92;41.77
22743;BME280;11538;48.884;8.696;2023-03-03T12:24:50;99133.34;;;14.97;42.14
22743;BME280;11538;48.884;8.696;2023-03-03T12:34:07;99131.75;;;15.40;38.38
22743;BME280;11538;48.884;8.696;2023-03-03T12:37:10;99133.59;;;15.83;38.04
22743;BME280;11538;48.884;8.696;2023-03-03T12:46:52;99119.44;;;15.99;37.25
22743;BME280;11538;48.884;8.696;2023-03-03T12:50:01;99124.59;;;15.74;36.76
22743;BME280;11538;48.884;8.696;2023-03-03T12:53:00;99119.44;;;15.81;37.92
22743;BME280;11538;48.884;8.696;2023-03-03T12:56:03;99117.78;;;16.66;37.89
22743;BME280;11538;48.884;8.696;2023-03-03T12:59:00;99124.44;;;17.08;37.04
22743;BME280;11538;48.884;8.696;2023-03-03T13:17:29;99120.59;;;15.62;39.27
22743;BME280;11538;48.884;8.696;2023-03-03T13:20:11;99116.19;;;14.96;39.75
22743;BME280;11538;48.884;8.696;2023-03-03T13:22:54;99118.78;;;14.43;41.48
22743;BME280;11538;48.884;8.696;2023-03-03T13:28:27;99110.50;;;13.45;42.04
22743;BME280;11538;48.884;8.696;2023-03-03T13:31:11;99112.50;;;13.16;44.45
22743;BME280;11538;48.884;8.696;2023-03-03T13:33:53;99107.81;;;13.08;45.41
22743;BME280;11538;48.884;8.696;2023-03-03T13:36:27;99112.41;;;12.85;43.79
22743;BME280;11538;48.884;8.696;2023-03-03T13:39:07;99104.69;;;12.64;46.91
22743;BME280;11538;48.884;8.696;2023-03-03T13:41:46;99100.63;;;12.76;45.46
22743;BME280;11538;48.884;8.696;2023-03-03T13:44:29;99097.22;;;13.07;45.88
22743;BME280;11538;48.884;8.696;2023-03-03T13:47:40;99103.13;;;13.45;44.67
22743;BME280;11538;48.884;8.696;2023-03-03T13:50:30;99093.31;;;13.67;44.55
22743;BME280;11538;48.884;8.696;2023-03-03T13:53:33;99091.78;;;14.24;42.04
22743;BME280;11538;48.884;8.696;2023-03-03T14:05:12;99086.47;;;13.79;42.70
22743;BME280;11538;48.884;8.696;2023-03-03T14:07:59;99083.13;;;14.31;41.66
22743;BME280;11538;48.884;8.696;2023-03-03T14:11:09;99086.72;;;14.58;41.51
22743;BME280;11538;48.884;8.696;2023-03-03T14:14:17;99085.81;;;14.89;41.17
22743;BME280;11538;48.884;8.696;2023-03-03T14:17:01;99081.28;;;15.02;40.85
22743;BME280;11538;48.884;8.696;2023-03-03T14:19:43;99081.13;;;14.89;40.88
22743;BME280;11538;48.884;8.696;2023-03-03T14:22:18;99075.34;;;14.82;41.01
22743;BME280;11538;48.884;8.696;2023-03-03T14:27:35;99088.66;;;14.66;40.65
22743;BME280;11538;48.884;8.696;2023-03-03T14:35:50;99070.63;;;13.49;43.69
22743;BME280;11538;48.884;8.696;2023-03-03T14:38:36;99070.66;;;12.90;44.60
22743;BME280;11538;48.884;8.696;2023-03-03T14:41:20;99070.16;;;12.37;45.35
22743;BME280;11538;48.884;8.696;2023-03-03T14:44:23;99075.13;;;11.93;46.64
22743;BME280;11538;48.884;8.696;2023-03-03T14:49:38;99074.13;;;11.55;47.42
22743;BME280;11538;48.884;8.696;2023-03-03T14:54:45;99075.50;;;11.39;48.25
22743;BME280;11538;48.884;8.696;2023-03-03T14:57:39;99068.88;;;11.31;48.32
22743;BME280;11538;48.884;8.696;2023-03-03T15:03:16;99066.28;;;11.07;50.04
22743;BME280;11538;48.884;8.696;2023-03-03T15:05:55;99070.38;;;11.04;49.39
22743;BME280;11538;48.884;8.696;2023-03-03T15:08:35;99070.16;;;11.01;50.01
22743;BME280;11538;48.884;8.696;2023-03-03T15:13:44;99064.31;;;10.93;49.83
22743;BME280;11538;48.884;8.696;2023-03-03T15:16:18;99063.06;;;10.86;49.67
22743;BME280;11538;48.884;8.696;2023-03-03T15:19:24;99055.97;;;10.71;49.54
22743;BME280;11538;48.884;8.696;2023-03-03T15:25:03;99047.66;;;10.62;50.09
22743;BME280;11538;48.884;8.696;2023-03-03T15:28:00;99042.09;;;10.53;51.04
22743;BME280;11538;48.884;8.696;2023-03-03T15:30:52;99043.84;;;10.44;50.26
22743;BME280;11538;48.884;8.696;2023-03-03T15:33:28;99056.38;;;10.39;49.93
22743;BME280;11538;48.884;8.696;2023-03-03T15:36:07;99043.16;;;10.33;50.24
22743;BME280;11538;48.884;8.696;2023-03-03T15:41:46;99048.66;;;10.28;50.67
22743;BME280;11538;48.884;8.696;2023-03-03T15:54:12;99050.72;;;10.12;51.85
22743;BME280;11538;48.884;8.696;2023-03-03T15:56:44;99056.72;;;10.08;52.19
22743;BME280;11538;48.884;8.696;2023-03-03T16:02:45;99059.09;;;9.91;52.57
22743;BME280;11538;48.884;8.696;2023-03-03T16:05:45;99051.88;;;9.81;52.42
22743;BME280;11538;48.884;8.696;2023-03-03T16:11:08;99058.28;;;9.66;52.90
22743;BME280;11538;48.884;8.696;2023-03-03T16:25:55;99060.84;;;9.52;54.03
22743;BME280;11538;48.884;8.696;2023-03-03T16:28:42;99071.22;;;9.45;54.41
22743;BME280;11538;48.884;8.696;2023-03-03T16:31:56;99079.91;;;9.42;54.61
22743;BME280;11538;48.884;8.696;2023-03-03T16:34:55;99079.22;;;9.31;54.88
22743;BME280;11538;48.884;8.696;2023-03-03T16:37:35;99081.41;;;9.24;55.12
22743;BME280;11538;48.884;8.696;2023-03-03T16:40:26;99080.84;;;9.27;55.15
22743;BME280;11538;48.884;8.696;2023-03-03T16:43:59;99074.16;;;9.19;55.50
22743;BME280;11538;48.884;8.696;2023-03-03T16:46:45;99089.06;;;9.11;55.93
22743;BME280;11538;48.884;8.696;2023-03-03T16:49:26;99094.00;;;9.04;56.22
22743;BME280;11538;48.884;8.696;2023-03-03T16:52:14;99105.66;;;9.04;56.60
22743;BME280;11538;48.884;8.696;2023-03-03T16:54:58;99103.50;;;9.01;57.20
22743;BME280;11538;48.884;8.696;2023-03-03T17:00:26;99117.41;;;8.84;57.96
22743;BME280;11538;48.884;8.696;2023-03-03T17:06:20;99124.00;;;8.68;58.91
22743;BME280;11538;48.884;8.696;2023-03-03T17:09:41;99127.28;;;8.59;59.40
22743;BME280;11538;48.884;8.696;2023-03-03T17:12:57;99119.44;;;8.53;59.74
22743;BME280;11538;48.884;8.696;2023-03-03T17:15:37;99129.75;;;8.51;60.06
22743;BME280;11538;48.884;8.696;2023-03-03T17:20:58;99132.44;;;8.40;60.57
22743;BME280;11538;48.884;8.696;2023-03-03T17:24:09;99134.34;;;8.40;60.65
22743;BME280;11538;48.884;8.696;2023-03-03T17:30:20;99150.31;;;8.31;61.92
22743;BME280;11538;48.884;8.696;2023-03-03T17:36:38;99158.22;;;8.17;62.16
22743;BME280;11538;48.884;8.696;2023-03-03T17:39:14;99162.03;;;8.11;62.27
22743;BME280;11538;48.884;8.696;2023-03-03T17:42:16;99160.44;;;7.99;63.84
22743;BME280;11538;48.884;8.696;2023-03-03T17:44:58;99177.72;;;7.83;64.58
22743;BME280;11538;48.884;8.696;2023-03-03T17:51:08;99180.97;;;7.59;65.48
22743;BME280;11538;48.884;8.696;2023-03-03T17:54:21;99186.09;;;7.35;66.36